createdAt,value
2023-05-20T00:04:28.779Z,101603.09
2023-05-20T00:09:30.854Z,101607.75
2023-05-20T00:14:32.852Z,101607.63
2023-05-20T00:19:34.988Z,101609.44
2023-05-20T00:29:38.957Z,101614.81
2023-05-20T00:34:41.160Z,101623.59
2023-05-20T00:39:43.390Z,101623.66
2023-05-20T00:44:45.332Z,101618.31
2023-05-20T00:49:50.521Z,101612.31
2023-05-20T00:54:52.897Z,101614.00
2023-05-20T00:59:55.485Z,101606.78
2023-05-20T01:04:58.116Z,101610.25
2023-05-20T01:10:00.506Z,101617.47
2023-05-20T01:15:07.424Z,101602.28
2023-05-20T01:20:10.704Z,101602.22
2023-05-20T01:25:12.734Z,101609.53
2023-05-20T01:30:16.066Z,101600.66
2023-05-20T01:35:21.133Z,101607.56
2023-05-20T01:40:24.034Z,101600.66
2023-05-20T01:45:26.402Z,101593.59
2023-05-20T01:50:28.295Z,101593.50
2023-05-20T01:55:30.304Z,101585.56
2023-05-20T02:00:36.203Z,101581.22
2023-05-20T02:05:38.479Z,101583.84
2023-05-20T02:10:40.936Z,101576.66
2023-05-20T02:15:43.273Z,101576.78
2023-05-20T02:20:45.425Z,101576.59
2023-05-20T02:25:47.903Z,101582.00
2023-05-20T02:30:52.679Z,101579.44
2023-05-20T02:35:54.862Z,101577.81
2023-05-20T02:40:57.244Z,101570.63
2023-05-20T02:45:59.208Z,101566.16
2023-05-20T02:51:01.498Z,101574.16
2023-05-20T02:56:07.031Z,101574.16
2023-05-20T03:01:09.089Z,101567.13
2023-05-20T03:06:11.201Z,101565.28
2023-05-20T03:11:13.196Z,101565.97
2023-05-20T03:16:17.198Z,101556.50
2023-05-20T03:21:19.275Z,101560.03
2023-05-20T03:26:22.142Z,101567.13
2023-05-20T03:31:24.305Z,101560.88
2023-05-20T03:36:26.238Z,101555.63
2023-05-20T03:41:28.583Z,101552.97
2023-05-20T03:46:32.982Z,101559.09
2023-05-20T03:51:35.054Z,101549.25
2023-05-20T03:56:37.151Z,101542.28
2023-05-20T04:01:39.311Z,101549.34
2023-05-20T04:06:41.295Z,101544.84
2023-05-20T04:11:43.443Z,101550.19
2023-05-20T04:16:46.253Z,101542.34
2023-05-20T04:21:48.413Z,101547.63
2023-05-20T04:26:50.490Z,101547.69
2023-05-20T04:31:52.507Z,101552.25
2023-05-20T04:36:54.683Z,101546.72
2023-05-20T04:41:57.072Z,101549.56
2023-05-20T04:46:59.959Z,101550.38
2023-05-20T04:52:02.117Z,101562.75
2023-05-20T04:57:04.450Z,101554.84
2023-05-20T05:02:06.466Z,101545.03
2023-05-20T05:07:08.379Z,101546.03
2023-05-20T05:12:10.421Z,101538.97
2023-05-20T05:17:12.687Z,101537.06
2023-05-20T05:22:14.732Z,101536.28
2023-05-20T05:27:17.116Z,101547.03
2023-05-20T05:32:19.308Z,101536.22
2023-05-20T05:37:21.728Z,101535.44
2023-05-20T05:42:23.724Z,101543.28
2023-05-20T05:47:30.109Z,101533.94
2023-05-20T05:52:32.198Z,101535.69
2023-05-20T05:57:34.397Z,101536.53
2023-05-20T06:02:36.864Z,101533.38
2023-05-20T06:07:39.104Z,101533.56
2023-05-20T06:12:41.328Z,101523.41
2023-05-20T06:17:43.274Z,101526.34
2023-05-20T06:22:45.158Z,101526.16
2023-05-20T06:27:47.121Z,101527.81
2023-05-20T06:32:49.299Z,101530.66
2023-05-20T06:37:51.430Z,101515.47
2023-05-20T06:42:53.612Z,101517.13
2023-05-20T06:47:56.423Z,101503.75
2023-05-20T06:52:58.675Z,101503.75
2023-05-20T06:58:00.811Z,101500.94
2023-05-20T07:03:02.930Z,101498.09
2023-05-20T07:08:05.122Z,101495.44
2023-05-20T07:13:07.132Z,101497.31
2023-05-20T07:18:09.081Z,101489.16
2023-05-20T07:23:11.746Z,101477.81
2023-05-20T07:28:17.064Z,101482.00
2023-05-20T07:33:19.563Z,101473.28
2023-05-20T07:38:21.900Z,101485.69
2023-05-20T07:43:23.984Z,101475.16
2023-05-20T07:48:26.275Z,101463.38
2023-05-20T07:53:28.336Z,101470.47
2023-05-20T07:58:31.944Z,101465.09
2023-05-20T08:03:34.193Z,101462.44
2023-05-20T08:08:36.563Z,101454.50
2023-05-20T08:13:38.533Z,101445.44
2023-05-20T08:18:40.442Z,101447.97
2023-05-20T08:23:42.518Z,101445.06
2023-05-20T08:28:44.515Z,101448.06
2023-05-20T08:33:46.448Z,101445.47
2023-05-20T08:38:49.209Z,101435.97
2023-05-20T08:43:52.211Z,101430.03
2023-05-20T08:48:54.183Z,101424.19
2023-05-20T08:53:56.290Z,101425.59
2023-05-20T08:58:58.366Z,101425.47
2023-05-20T09:04:00.616Z,101435.19
2023-05-20T09:09:02.456Z,101422.72
2023-05-20T09:14:04.485Z,101419.78
2023-05-20T09:19:07.847Z,101424.69
2023-05-20T09:24:09.974Z,101418.22
2023-05-20T09:29:11.983Z,101420.78
2023-05-20T09:34:14.468Z,101416.50
2023-05-20T09:39:20.366Z,101403.91
2023-05-20T09:44:23.338Z,101402.34
2023-05-20T09:49:26.537Z,101409.50
2023-05-20T09:54:30.222Z,101405.66
2023-05-20T09:59:33.104Z,101401.06
2023-05-20T10:04:37.653Z,101395.09
2023-05-20T10:09:55.475Z,101397.97
2023-05-20T10:15:16.151Z,101392.44
2023-05-20T10:20:18.383Z,101396.16
2023-05-20T10:25:30.112Z,101386.78
2023-05-20T10:30:32.215Z,101379.56
2023-05-20T10:35:34.256Z,101378.78
2023-05-20T10:40:36.693Z,101382.56
2023-05-20T10:45:58.957Z,101377.28
2023-05-20T10:51:06.287Z,101369.13
2023-05-20T10:56:18.896Z,101370.91
2023-05-20T11:01:26.811Z,101375.47
2023-05-20T11:06:29.428Z,101366.53
2023-05-20T11:11:31.694Z,101366.59
2023-05-20T11:16:33.759Z,101359.53
2023-05-20T11:21:42.795Z,101359.28
2023-05-20T11:26:45.319Z,101352.13
2023-05-20T11:31:49.025Z,101343.59
2023-05-20T11:37:00.979Z,101328.34
2023-05-20T11:42:03.698Z,101328.25
2023-05-20T11:47:06.345Z,101310.69
2023-05-20T11:52:15.744Z,101315.25
2023-05-20T11:57:19.282Z,101314.00
2023-05-20T12:02:21.513Z,101301.97
2023-05-20T12:07:23.713Z,101306.19
2023-05-20T12:12:26.040Z,101293.88
2023-05-20T12:17:28.319Z,101299.91
2023-05-20T12:22:30.625Z,101294.91
2023-05-20T12:27:34.349Z,101293.00
2023-05-20T12:32:38.105Z,101295.91
2023-05-20T12:37:44.806Z,101294.22
2023-05-20T12:42:46.912Z,101290.56
2023-05-20T12:47:49.264Z,101282.22
2023-05-20T12:52:51.829Z,101275.09
2023-05-20T12:57:55.143Z,101274.31
2023-05-20T13:02:57.416Z,101296.47
2023-05-20T13:07:59.348Z,101286.72
2023-05-20T13:13:01.392Z,101283.88
2023-05-20T13:18:06.324Z,101287.06
2023-05-20T13:23:08.658Z,101276.59
2023-05-20T13:28:11.017Z,101287.47
2023-05-20T13:33:13.045Z,101280.31
2023-05-20T13:38:15.368Z,101284.31
2023-05-20T13:43:17.479Z,101285.75
2023-05-20T13:48:19.426Z,101278.84
2023-05-20T13:53:21.645Z,101275.41
2023-05-20T13:58:23.842Z,101265.13
2023-05-20T14:03:25.951Z,101259.94
2023-05-20T14:08:28.366Z,101242.00
2023-05-20T14:13:30.382Z,101245.50
2023-05-20T14:18:32.338Z,101249.78
2023-05-20T14:23:34.363Z,101237.13
2023-05-20T14:28:36.331Z,101237.97
2023-05-20T14:33:38.486Z,101242.06
2023-05-20T14:38:40.612Z,101231.03
2023-05-20T14:43:42.597Z,101216.22
2023-05-20T14:48:44.583Z,101221.72
2023-05-20T14:53:46.556Z,101220.53
2023-05-20T14:58:48.661Z,101214.47
2023-05-20T15:03:50.752Z,101217.00
2023-05-20T15:08:53.194Z,101215.34
2023-05-20T15:13:55.856Z,101209.06
2023-05-20T15:18:57.924Z,101210.50
2023-05-20T15:24:00.298Z,101205.53
2023-05-20T15:29:02.796Z,101199.56
2023-05-20T15:34:04.871Z,101198.38
2023-05-20T15:39:06.948Z,101198.44
2023-05-20T15:44:09.299Z,101199.50
2023-05-20T15:49:12.866Z,101195.59
2023-05-20T15:54:14.964Z,101193.56
2023-05-20T15:59:16.917Z,101189.47
2023-05-20T16:04:19.871Z,101191.75
2023-05-20T16:09:22.786Z,101192.13
2023-05-20T16:14:25.219Z,101192.78
2023-05-20T16:19:27.263Z,101192.34
2023-05-20T16:24:29.290Z,101197.69
2023-05-20T16:29:31.540Z,101189.88
2023-05-20T16:34:33.704Z,101192.19
2023-05-20T16:39:36.036Z,101192.06
2023-05-20T16:44:39.515Z,101193.56
2023-05-20T16:49:41.692Z,101195.38
2023-05-20T16:54:43.921Z,101208.28
2023-05-20T16:59:46.626Z,101205.50
2023-05-20T17:04:48.799Z,101202.22
2023-05-20T17:09:51.348Z,101212.75
2023-05-20T17:14:53.598Z,101218.47
2023-05-20T17:19:55.749Z,101201.56
2023-05-20T17:24:57.908Z,101211.88
2023-05-20T17:30:01.999Z,101198.06
2023-05-20T17:35:06.329Z,101193.41
2023-05-20T17:40:08.797Z,101203.25
2023-05-20T17:45:11.515Z,101206.56
2023-05-20T17:50:15.003Z,101210.91
2023-05-20T17:55:18.969Z,101213.84
2023-05-20T18:00:21.915Z,101205.50
2023-05-20T18:05:24.286Z,101207.22
2023-05-20T18:10:29.962Z,101210.84
2023-05-20T18:15:32.117Z,101214.88
2023-05-20T18:20:34.595Z,101212.81
2023-05-20T18:25:37.031Z,101215.38
2023-05-20T18:30:39.300Z,101218.63
2023-05-20T18:35:41.353Z,101226.81
2023-05-20T18:40:43.384Z,101231.75
2023-05-20T18:45:45.391Z,101233.66
2023-05-20T18:50:47.929Z,101240.81
2023-05-20T18:55:50.635Z,101237.38
2023-05-20T19:00:53.055Z,101239.16
2023-05-20T19:05:55.260Z,101237.25
2023-05-20T19:10:57.216Z,101232.94
2023-05-20T19:15:59.226Z,101240.22
2023-05-20T19:21:01.331Z,101234.78
2023-05-20T19:26:03.429Z,101234.44
2023-05-20T19:31:05.842Z,101239.28
2023-05-20T19:36:08.009Z,101236.75
2023-05-20T19:41:13.912Z,101240.31
2023-05-20T19:46:16.502Z,101237.53
2023-05-20T19:51:18.765Z,101243.16
2023-05-20T19:56:22.183Z,101248.06
2023-05-20T20:01:24.065Z,101243.66
2023-05-20T20:06:26.481Z,101245.47
2023-05-20T20:11:28.409Z,101245.69
2023-05-20T20:16:30.697Z,101244.63
2023-05-20T20:21:32.772Z,101240.22
2023-05-20T20:26:34.996Z,101247.19
2023-05-20T20:31:38.112Z,101249.78
2023-05-20T20:36:40.317Z,101239.28
2023-05-20T20:41:45.429Z,101239.34
2023-05-20T20:46:55.168Z,101227.69
2023-05-20T20:51:57.268Z,101229.22
2023-05-20T20:57:00.434Z,101225.13
2023-05-20T21:02:03.546Z,101220.72
2023-05-20T21:07:05.583Z,101217.97
2023-05-20T21:12:07.987Z,101229.78
2023-05-20T21:17:10.495Z,101221.00
2023-05-20T21:22:12.528Z,101219.19
2023-05-20T21:27:14.970Z,101220.72
2023-05-20T21:32:17.104Z,101233.03
2023-05-20T21:37:19.364Z,101225.91
2023-05-20T21:42:21.362Z,101225.63
2023-05-20T21:47:23.600Z,101209.84
2023-05-20T21:52:25.713Z,101211.28
2023-05-20T21:57:27.698Z,101212.81
2023-05-20T22:02:29.891Z,101216.41
2023-05-20T22:07:32.123Z,101210.78
2023-05-20T22:12:36.149Z,101200.94
2023-05-20T22:17:39.208Z,101207.16
2023-05-20T22:22:41.563Z,101202.88
2023-05-20T22:27:43.777Z,101198.38
2023-05-20T22:32:46.106Z,101185.94
2023-05-20T22:37:48.772Z,101188.53
2023-05-20T22:42:50.855Z,101184.41
2023-05-20T22:47:53.418Z,101173.44
2023-05-20T22:52:55.559Z,101163.00
2023-05-20T22:57:58.215Z,101163.97
2023-05-20T23:03:00.322Z,101157.41
2023-05-20T23:08:02.383Z,101156.81
2023-05-20T23:13:04.383Z,101152.22
2023-05-20T23:18:06.554Z,101147.84
2023-05-20T23:23:11.586Z,101138.69
2023-05-20T23:28:13.888Z,101132.66
2023-05-20T23:33:18.430Z,101120.13
2023-05-20T23:38:24.908Z,101120.88
2023-05-20T23:43:26.898Z,101122.81
2023-05-20T23:48:28.821Z,101116.59
2023-05-20T23:53:30.988Z,101121.72
2023-05-20T23:58:32.947Z,101112.47
